»·PEaware :: N242SK L88-KSBP

N242SK :: L88-KSBP

FLIGHT INFORMATION

Flight Status: Arrived
Operator: Privately registered:
United States
More flights under this callsign
Pilot: Sanjiv Singh (4490)
Aircraft: CESSNA 172 SKYHAWK
(C172)
More flights by this aircraft type
Origin: L88 New Cuyama
United States
Destination: KSBP San Luis Co Regl
United States
More flights between these airports :: More routes between these airports
Route:
File this flight plan on PilotEdge
Remarks: CAT-II Rating
Altitude:
(Current/Filed)
4,500ft
Speed:
(Current/Filed)
100kts
Departed: 09-Jan-17 08:39 AM
Arrived: 09-Jan-17 09:21 AM
Distance/Time
Traveled:
50nm/0:42
Distance/Time
To Go:
Arrived

Flight Plot

Page will automatically refresh every two minutes.


Map Options




Map Legend


Flown Route
Filed Route
Departure Airport
Arrival Airport
Navaid (VOR, NDB)
Fix

Horizontal Profiles

Position Reports

Time Latitude Longitude Heading Altitude Ground
Speed
09-Jan-17 08:28 34.943472 -119.690965 294 2207ft 0kts
09-Jan-17 08:29 34.943472 -119.690965 294 2207ft 0kts
09-Jan-17 08:30 34.943472 -119.690965 294 2207ft 0kts
09-Jan-17 08:31 34.943472 -119.690965 294 2207ft 0kts
09-Jan-17 08:32 34.943472 -119.690965 294 2207ft 0kts
09-Jan-17 08:33 34.943472 -119.690965 294 2207ft 0kts
09-Jan-17 08:34 34.943472 -119.690965 294 2207ft 0kts
09-Jan-17 08:35 34.942753 -119.691182 194 2207ft 1kts
09-Jan-17 08:36 34.941436 -119.689213 116 2207ft 24kts
09-Jan-17 08:37 34.937840 -119.680592 116 2207ft 38kts
09-Jan-17 08:38 34.937672 -119.680027 294 2207ft 0kts
09-Jan-17 08:39 34.943575 -119.692344 304 2652ft 76kts
09-Jan-17 08:40 34.951139 -119.708109 294 3450ft 78kts
09-Jan-17 08:41 34.958255 -119.723866 295 4202ft 77kts
09-Jan-17 08:42 34.964276 -119.736859 295 4653ft 86kts
09-Jan-17 08:43 34.972290 -119.755453 296 4687ft 107kts
09-Jan-17 08:44 34.982672 -119.779602 297 4706ft 107kts
09-Jan-17 08:45 34.992144 -119.800046 297 4650ft 107kts
09-Jan-17 08:46 35.004996 -119.819086 303 4675ft 106kts
09-Jan-17 08:47 35.012543 -119.833622 296 4550ft 114kts
09-Jan-17 08:48 35.020692 -119.851725 294 4521ft 108kts
09-Jan-17 08:49 35.029570 -119.872228 293 4530ft 106kts
09-Jan-17 08:50 35.035700 -119.886753 292 4525ft 106kts
09-Jan-17 08:51 35.042853 -119.905076 296 4527ft 106kts
09-Jan-17 08:52 35.050814 -119.923053 268 4472ft 108kts
09-Jan-17 08:53 35.056228 -119.941330 297 4531ft 106kts
09-Jan-17 08:54 35.064577 -119.959804 294 4539ft 106kts
09-Jan-17 08:55 35.072446 -119.977541 294 4540ft 106kts
09-Jan-17 08:56 35.081510 -119.997973 294 4538ft 106kts
09-Jan-17 08:57 35.090361 -120.017819 294 4536ft 106kts
09-Jan-17 08:58 35.100082 -120.039475 294 4534ft 106kts
09-Jan-17 08:59 35.110878 -120.063354 294 4532ft 106kts
09-Jan-17 09:00 35.121824 -120.087415 294 4530ft 106kts
09-Jan-17 09:01 35.133710 -120.113249 295 4528ft 106kts
09-Jan-17 09:02 35.144675 -120.141422 290 4577ft 110kts
09-Jan-17 09:03 35.150544 -120.174011 288 4580ft 113kts
09-Jan-17 09:04 35.156459 -120.207421 288 4580ft 114kts
09-Jan-17 09:05 35.162361 -120.240813 288 4581ft 115kts
09-Jan-17 09:06 35.168210 -120.274002 289 4576ft 116kts
09-Jan-17 09:07 35.173955 -120.306710 289 4571ft 116kts
09-Jan-17 09:08 35.179748 -120.340115 278 4564ft 122kts
09-Jan-17 09:09 35.185805 -120.375451 280 4558ft 127kts
09-Jan-17 09:10 35.187779 -120.411705 264 4365ft 132kts
09-Jan-17 09:11 35.186383 -120.447941 267 3795ft 125kts
09-Jan-17 09:12 35.185320 -120.482884 269 3111ft 120kts
09-Jan-17 09:13 35.195092 -120.513929 306 2462ft 117kts
09-Jan-17 09:14 35.208747 -120.541958 295 1885ft 113kts
09-Jan-17 09:15 35.219485 -120.570971 296 1526ft 112kts
09-Jan-17 09:16 35.230019 -120.598741 296 1235ft 111kts
09-Jan-17 09:17 35.240981 -120.623907 307 1191ft 104kts
09-Jan-17 09:18 35.254671 -120.647150 310 1015ft 106kts
09-Jan-17 09:19 35.248915 -120.661000 129 578ft 70kts
09-Jan-17 09:20 35.240910 -120.647093 120 232ft 55kts
09-Jan-17 09:21 35.237843 -120.640401 88 215ft 0kts
09-Jan-17 09:22 35.237843 -120.640401 88 215ft 0kts
09-Jan-17 09:23 35.237627 -120.638402 80 215ft 11kts
09-Jan-17 09:24 35.238004 -120.638251 274 215ft 0kts

Navigation Log

Ident Type
1. L88 Airport
2. KSBP Airport